Terminal Aerodrome Forecast
Issued by NWS

Home | Current Version | Previous Version | Text Only | Print | Product List | Glossary On
Versions: 1 2 3 4 5 6 7 8 9 10 11 12 13 14 15 16 17 18 19 20 21 22 23 24
000
FTUS41 KBUF 191700
TAFIAG
TAF
KIAG 191722Z 1918/2018 03010KT P6SM SKC
     FM192300 06007KT P6SM FEW250
     FM200200 11006KT P6SM FEW250
     FM201400 16005KT P6SM SCT250
     FM201700 22005KT P6SM SCT200=

USA.gov is the U.S. government's official web portal to all federal, state and local government web resources and services.